This is the latest recevied weather packets stored in our database for station/object VE2CSM-13. If no packets are shown the sender has not sent any weather packets the latest 10 day(s).
| Time | Temp. | Humidity | Pressure | Rain* | Wind** | Luminosity | Snow |
|---|---|---|---|---|---|---|---|
| 1788140077 | 55° F | 96% | 771.2 mmHg | 0 in | - | - | - |
| 1788138278 | 55° F | 96% | 771.2 mmHg | 0 in | - | - | - |
| 1788134678 | 57° F | 95% | 770.3 mmHg | 0 in | - | - | - |
| 1788131079 | 59° F | 92% | 769.6 mmHg | 0 in | - | - | - |
| 1788127479 | 59° F | 91% | 769.3 mmHg | 0 in | - | - | - |
| 1788123878 | 59° F | 89% | 769 mmHg | 0.02 in | - | - | - |
| 1788120278 | 64° F | 71% | 769 mmHg | 0 in | - | - | - |
| 1788116678 | 77° F | 59% | 767.5 mmHg | 0 in | - | - | - |
| 1788113078 | 74° F | 67% | 768.1 mmHg | 0 in | - | - | - |
| 1788109478 | 74° F | 69% | 768.8 mmHg | 0 in | - | - | - |
| 1788105878 | 74° F | 66% | 769.5 mmHg | 0 in | - | - | - |
| 1788102278 | 71° F | 70% | 769.6 mmHg | 0 in | - | - | - |
| 1788098679 | 69° F | 75% | 770 mmHg | 0 in | - | - | - |
| 1788095081 | 67° F | 81% | 769.9 mmHg | 0 in | - | - | - |
| 1788091478 | 63° F | 88% | 769.9 mmHg | 0 in | - | - | - |
| 1788087878 | 57° F | 97% | 770.2 mmHg | 0 in | - | - | - |
| 1788086077 | 56° F | 97% | 770.1 mmHg | 0 in | - | - | - |
| 1788084400 | 56° F | 97% | 770.1 mmHg | 0 in | - | - | - |
| 1788080678 | 56° F | 97% | 770 mmHg | 0 in | - | - | - |
| 1788077131 | 57° F | 96% | 769.4 mmHg | 0.01 in | - | - | - |
| 1788076117 | 58° F | 96% | 769.6 mmHg | 0.01 in | - | - | - |
| 1788075223 | 58° F | 96% | 769.5 mmHg | 0 in | - | - | - |
| 1788075158 | 58° F | 96% | 769.5 mmHg | 0 in | - | - | - |
| 1788073238 | 58° F | 96% | 769.6 mmHg | 0 in | - | - | - |
| 1788072283 | 58° F | 96% | 769.6 mmHg | 0 in | - | - | - |
* Rain latest hour (hover to see other rain measurements)
** Current wind speed in m/s (hover to see current wind gust speed)